Time;durP1;ratioP1;P1;durP2;ratioP2;P2;SDS_P1;SDS_P2;PMS_P1;PMS_P2;Temp;Humidity;BMP_temperature;BMP_pressure;BME280_temperature;BME280_humidity;BME280_pressure;Samples;Min_cycle;Max_cycle;Signal;HPM_P1;HPM_P2
2021/06/23 00:02:09;;;;;;;;;33.50;30.75;;;;;23.38;48.08;101032.81;5000944;28;45349;-73
2021/06/23 00:04:35;;;;;;;;;37.25;29.75;;;;;23.37;48.53;101016.88;5001833;28;46084;-73
2021/06/23 00:07:00;;;;;;;;;31.25;29.00;;;;;23.39;47.76;101023.00;5016385;28;62995;-73
2021/06/23 00:09:25;;;;;;;;;35.75;30.25;;;;;23.37;48.22;101016.88;4985489;28;45387;-73
2021/06/23 00:12:16;;;;;;;;;31.75;28.25;;;;;23.27;47.53;101010.16;5019862;28;58925;-73
2021/06/23 00:14:41;;;;;;;;;35.25;29.50;;;;;23.36;48.69;101029.31;5020057;28;48290;-73
2021/06/23 00:17:07;;;;;;;;;27.50;26.00;;;;;23.38;47.67;101018.63;5000524;28;45256;-73
2021/06/23 00:19:32;;;;;;;;;27.75;26.25;;;;;23.33;48.24;101017.91;4996509;28;64414;-73
2021/06/23 00:21:57;;;;;;;;;36.00;31.50;;;;;23.31;48.26;101023.31;5010130;28;61497;-72
2021/06/23 00:24:23;;;;;;;;;33.75;28.25;;;;;23.28;48.13;101019.88;5002452;28;65508;-73
2021/06/23 00:26:48;;;;;;;;;32.25;29.50;;;;;23.27;48.59;101027.00;5036623;28;46107;-72
2021/06/23 00:29:13;;;;;;;;;31.50;30.25;;;;;23.23;48.28;101033.38;5003442;28;45756;-72
2021/06/23 00:31:39;;;;;;;;;33.50;29.50;;;;;23.22;48.78;101026.34;5020173;28;45416;-72
2021/06/23 00:34:04;;;;;;;;;30.00;27.25;;;;;23.22;48.71;101018.34;5003234;28;47333;-72
2021/06/23 00:36:30;;;;;;;;;27.25;25.75;;;;;23.22;48.64;101020.13;5019902;28;45377;-73
2021/06/23 00:38:56;;;;;;;;;28.75;27.75;;;;;23.21;48.69;101016.63;5021184;28;45254;-72
2021/06/23 00:41:21;;;;;;;;;29.25;29.25;;;;;23.21;48.12;101029.06;5020123;28;45334;-72
2021/06/23 00:43:47;;;;;;;;;25.25;23.25;;;;;23.10;48.71;101024.97;5016073;28;47272;-72
2021/06/23 00:46:14;;;;;;;;;31.50;26.50;;;;;23.15;49.02;101034.63;4983579;28;45971;-72
2021/06/23 00:48:40;;;;;;;;;26.75;26.50;;;;;23.17;49.02;101033.63;5000006;28;45287;-72
2021/06/23 00:51:05;;;;;;;;;30.75;28.25;;;;;23.18;48.86;101032.69;4986921;28;55718;-73
2021/06/23 00:53:33;;;;;;;;;28.75;26.25;;;;;23.15;49.28;101032.81;5016882;28;47042;-72
2021/06/23 00:55:59;;;;;;;;;29.75;29.00;;;;;23.12;49.03;101035.59;5003231;28;46002;-73
2021/06/23 00:58:25;;;;;;;;;28.50;25.25;;;;;23.10;49.07;101032.09;5002919;28;45250;-73
2021/06/23 01:00:57;;;;;;;;;32.75;30.00;;;;;23.10;49.19;101032.97;4991701;28;49800;-73
2021/06/23 01:03:22;;;;;;;;;28.50;26.50;;;;;23.03;48.56;101027.97;4983578;28;48324;-72
2021/06/23 01:05:48;;;;;;;;;26.00;24.50;;;;;23.05;49.80;101034.97;4999464;28;55796;-73
2021/06/23 01:08:13;;;;;;;;;33.25;29.75;;;;;23.04;49.60;101033.22;4983030;28;45302;-73
2021/06/23 01:10:41;;;;;;;;;29.00;26.00;;;;;23.06;48.90;101034.03;4983184;28;45365;-72
2021/06/23 01:13:25;;;;;;;;;28.50;25.25;;;;;23.06;49.58;101030.50;4999433;28;45407;-73
2021/06/23 01:15:50;;;;;;;;;30.75;27.25;;;;;23.08;48.80;101032.16;4999418;28;45423;-73
2021/06/23 01:18:15;;;;;;;;;26.50;24.50;;;;;23.06;49.90;101025.19;4983280;28;45758;-73
2021/06/23 01:20:42;;;;;;;;;30.50;28.00;;;;;23.05;49.66;101031.44;4999507;28;45416;-73
2021/06/23 01:23:08;;;;;;;;;29.25;25.00;;;;;23.09;49.08;101035.69;5015788;28;46192;-73
2021/06/23 01:25:33;;;;;;;;;30.00;27.25;;;;;23.06;49.34;101027.84;4982638;28;45255;-73
2021/06/23 01:27:59;;;;;;;;;31.75;27.75;;;;;23.05;49.16;101032.28;5015757;28;50838;-73
2021/06/23 01:30:24;;;;;;;;;24.00;22.00;;;;;23.04;49.47;101033.22;4982293;28;63089;-73
2021/06/23 01:32:50;;;;;;;;;28.75;25.25;;;;;23.05;49.00;101024.31;4983015;28;47374;-73
2021/06/23 01:35:15;;;;;;;;;27.50;26.50;;;;;23.05;49.04;101031.44;5012580;28;45258;-73
2021/06/23 01:37:42;;;;;;;;;33.25;27.25;;;;;23.06;49.24;101028.72;5002413;28;45348;-73
2021/06/23 01:40:08;;;;;;;;;31.50;26.75;;;;;23.01;48.93;101019.16;5019229;28;45388;-73
2021/06/23 01:42:34;;;;;;;;;30.25;27.25;;;;;23.02;49.33;101031.53;5018779;28;47128;-73
2021/06/23 01:45:00;;;;;;;;;30.25;26.50;;;;;23.03;49.17;101033.28;5005954;28;45436;-73
2021/06/23 01:47:25;;;;;;;;;32.50;28.00;;;;;23.00;48.87;101034.25;4999245;28;45398;-73
2021/06/23 01:49:51;;;;;;;;;32.00;29.75;;;;;22.99;49.24;101027.19;4982638;28;45593;-74
2021/06/23 01:52:16;;;;;;;;;29.50;25.75;;;;;22.98;49.54;101036.13;4996823;28;54252;-73
2021/06/23 01:54:42;;;;;;;;;31.50;27.00;;;;;22.98;49.68;101027.25;5018743;28;45899;-74
2021/06/23 01:57:11;;;;;;;;;29.00;26.25;;;;;23.01;49.34;101041.31;5035620;28;45293;-73
2021/06/23 01:59:37;;;;;;;;;30.75;26.00;;;;;23.03;49.17;101030.63;5001717;28;45586;-73
2021/06/23 02:02:17;;;;;;;;;29.00;26.25;;;;;23.02;49.57;101037.75;4982380;28;47114;-74
2021/06/23 02:04:50;;;;;;;;;28.25;26.50;;;;;23.01;48.90;101029.78;5015496;28;45488;-73
2021/06/23 02:07:40;;;;;;;;;28.50;23.25;;;;;23.03;49.49;101035.97;4998759;28;45390;-73
2021/06/23 02:10:37;;;;;;;;;27.25;25.75;;;;;23.03;48.85;101030.63;5015586;28;45269;-73
2021/06/23 02:13:29;;;;;;;;;34.50;29.75;;;;;23.00;49.56;101026.25;4998499;28;47108;-73
2021/06/23 02:16:02;;;;;;;;;31.50;29.75;;;;;22.97;49.39;101023.72;4998798;28;45340;-73
2021/06/23 02:18:27;;;;;;;;;30.00;28.75;;;;;22.91;49.55;101018.63;4999111;28;45221;-73
2021/06/23 02:20:54;;;;;;;;;31.75;28.25;;;;;22.94;49.12;101023.84;4998391;28;51362;-73
2021/06/23 02:23:19;;;;;;;;;27.50;27.50;;;;;22.90;49.21;101024.88;5015014;28;46212;-73
2021/06/23 02:25:45;;;;;;;;;29.75;26.75;;;;;22.90;49.50;101022.22;4998614;28;45474;-73
2021/06/23 02:28:10;;;;;;;;;34.00;28.25;;;;;22.89;49.54;101024.94;5014702;28;56278;-73
2021/06/23 02:30:39;;;;;;;;;30.75;28.75;;;;;22.86;49.88;101025.94;4998157;28;55903;-74
2021/06/23 02:33:04;;;;;;;;;26.50;24.25;;;;;22.85;49.67;101029.53;4998488;28;47328;-73
2021/06/23 02:35:30;;;;;;;;;33.00;29.25;;;;;22.83;49.45;101020.66;4995341;28;45361;-74
2021/06/23 02:37:58;;;;;;;;;29.25;27.75;;;;;22.80;50.39;101026.13;4981292;28;58536;-73
2021/06/23 02:40:23;;;;;;;;;31.50;27.25;;;;;22.79;50.00;101024.38;4998332;28;45471;-73
2021/06/23 02:42:49;;;;;;;;;30.50;28.00;;;;;22.79;50.29;101032.38;4987399;28;48201;-74
2021/06/23 02:45:14;;;;;;;;;27.25;25.25;;;;;22.78;50.30;101043.94;4997524;28;45237;-74
2021/06/23 02:47:40;;;;;;;;;28.75;26.25;;;;;22.77;49.42;101036.88;5022003;28;45253;-73
2021/06/23 02:50:06;;;;;;;;;25.25;24.00;;;;;22.79;50.16;101041.22;5004400;28;62045;-73
2021/06/23 02:52:34;;;;;;;;;26.50;25.25;;;;;22.79;49.60;101040.34;5021242;28;45345;-73
2021/06/23 02:55:00;;;;;;;;;27.50;25.75;;;;;22.79;49.95;101043.00;5005109;28;45302;-73
2021/06/23 02:57:25;;;;;;;;;25.75;25.75;;;;;22.81;49.83;101038.50;5021651;28;45389;-73
2021/06/23 02:59:51;;;;;;;;;26.75;24.75;;;;;22.77;49.59;101032.44;5020111;28;45550;-73
2021/06/23 03:02:16;;;;;;;;;26.25;22.25;;;;;22.79;50.05;101043.00;4984668;28;59740;-73
2021/06/23 03:04:45;;;;;;;;;25.50;25.50;;;;;22.82;49.75;101045.56;4985156;28;45358;-73
2021/06/23 03:07:11;;;;;;;;;32.25;27.50;;;;;22.79;49.21;101024.38;5001556;28;45350;-73
2021/06/23 03:09:37;;;;;;;;;28.00;27.00;;;;;22.79;49.86;101027.06;5002856;28;45735;-73
2021/06/23 03:12:03;;;;;;;;;24.50;23.50;;;;;22.78;49.94;101038.63;5001484;28;45421;-74
2021/06/23 03:14:29;;;;;;;;;23.75;23.75;;;;;22.78;49.93;101030.63;4984768;28;45329;-73
2021/06/23 03:16:54;;;;;;;;;26.25;25.00;;;;;22.77;49.85;101037.75;5001051;28;54894;-74
2021/06/23 03:19:19;;;;;;;;;24.50;23.50;;;;;22.76;49.26;101028.03;5001343;28;45430;-73
2021/06/23 03:21:45;;;;;;;;;26.00;21.75;;;;;22.82;50.04;101034.91;5017693;28;45430;-73
2021/06/23 03:24:10;;;;;;;;;25.50;23.50;;;;;22.82;49.45;101026.94;4984800;28;45462;-74
2021/06/23 03:26:36;;;;;;;;;22.75;21.25;;;;;22.79;49.85;101024.38;5017709;28;45368;-73
2021/06/23 03:29:32;;;;;;;;;24.00;19.50;;;;;22.79;49.46;101027.91;5001070;28;45567;-73
2021/06/23 03:31:58;;;;;;;;;24.25;21.75;;;;;22.75;49.32;101028.06;4976781;28;45422;-74
2021/06/23 03:34:24;;;;;;;;;26.50;24.00;;;;;22.73;49.06;101022.81;5001188;28;45409;-73
2021/06/23 03:36:49;;;;;;;;;22.25;21.00;;;;;22.73;50.22;101028.13;5001054;28;45530;-74
2021/06/23 03:39:15;;;;;;;;;24.50;21.75;;;;;22.77;49.67;101028.91;4984593;28;45435;-74
2021/06/23 03:41:40;;;;;;;;;21.25;20.00;;;;;22.76;49.23;101025.38;4984520;28;47063;-74
2021/06/23 03:44:05;;;;;;;;;25.50;22.75;;;;;22.73;49.78;101030.78;4997348;28;53781;-73
2021/06/23 03:46:31;;;;;;;;;24.25;19.50;;;;;22.66;49.69;101025.75;5017657;28;45871;-73
2021/06/23 03:48:57;;;;;;;;;22.75;21.50;;;;;22.65;50.00;101024.00;5017339;28;45593;-73
2021/06/23 03:51:23;;;;;;;;;23.50;21.25;;;;;22.65;50.18;101027.53;5008129;28;45420;-73
2021/06/23 03:53:49;;;;;;;;;20.75;20.00;;;;;22.64;50.03;101024.94;5002776;28;45372;-73
2021/06/23 03:56:14;;;;;;;;;22.50;21.00;;;;;22.64;50.34;101022.28;5000514;28;54028;-73
2021/06/23 03:58:41;;;;;;;;;25.25;22.25;;;;;22.69;50.17;101044.28;4999005;28;53143;-73
2021/06/23 04:01:07;;;;;;;;;18.75;17.25;;;;;22.66;49.96;101041.72;5004174;28;47228;-73
2021/06/23 04:03:32;;;;;;;;;20.25;19.00;;;;;22.64;49.91;101040.91;4984163;28;45272;-73
2021/06/23 04:05:58;;;;;;;;;21.75;20.25;;;;;22.65;49.94;101047.97;5000033;28;61778;-72
2021/06/23 04:08:23;;;;;;;;;22.00;20.50;;;;;22.64;49.79;101049.75;4983821;28;45559;-73
2021/06/23 04:10:49;;;;;;;;;21.50;19.00;;;;;22.66;50.24;101045.22;5017120;28;46067;-73
2021/06/23 04:13:14;;;;;;;;;20.25;18.50;;;;;22.65;50.14;101039.97;5000245;28;45427;-73
2021/06/23 04:15:39;;;;;;;;;17.25;16.25;;;;;22.64;50.00;101051.53;5000394;28;50856;-73
2021/06/23 04:18:05;;;;;;;;;23.75;22.00;;;;;22.62;50.19;101051.59;4999719;28;59704;-74
2021/06/23 04:20:30;;;;;;;;;22.25;19.75;;;;;22.58;50.14;101053.47;5000431;28;46165;-73
2021/06/23 04:22:56;;;;;;;;;20.50;18.75;;;;;22.61;50.14;101056.97;4983288;28;52222;-73
2021/06/23 04:25:21;;;;;;;;;23.50;22.25;;;;;22.60;50.63;101056.13;4983000;28;64088;-73
2021/06/23 04:27:46;;;;;;;;;23.50;20.25;;;;;22.63;49.90;101055.13;4999341;28;63371;-73
2021/06/23 04:30:12;;;;;;;;;20.75;17.50;;;;;22.62;50.04;101058.72;5000275;28;45287;-74
2021/06/23 04:32:38;;;;;;;;;22.50;19.00;;;;;22.61;49.92;101054.31;5000121;28;45331;-73
2021/06/23 04:35:06;;;;;;;;;22.50;20.50;;;;;22.58;49.99;101058.81;5000591;28;45314;-73
2021/06/23 04:37:35;;;;;;;;;22.50;19.25;;;;;22.57;49.65;101059.72;4999857;28;45473;-73
2021/06/23 04:40:00;;;;;;;;;25.50;20.75;;;;;22.62;49.92;101064.03;5000252;28;45961;-73
2021/06/23 04:42:26;;;;;;;;;21.25;18.75;;;;;22.64;50.00;101072.81;5022170;28;45360;-73
2021/06/23 04:44:51;;;;;;;;;21.75;19.50;;;;;22.62;50.22;101069.34;5009195;28;45268;-74
2021/06/23 04:47:18;;;;;;;;;21.50;19.50;;;;;22.62;50.14;101069.34;4999951;28;45288;-73
2021/06/23 04:49:43;;;;;;;;;17.50;17.00;;;;;22.59;49.93;101067.69;4999952;28;45509;-73
2021/06/23 04:52:08;;;;;;;;;20.50;20.50;;;;;22.56;50.02;101065.09;5007885;28;45269;-73
2021/06/23 04:54:34;;;;;;;;;20.50;17.00;;;;;22.54;50.61;101069.63;5015926;28;61807;-73
2021/06/23 04:56:59;;;;;;;;;19.00;16.50;;;;;22.55;50.50;101069.56;5013090;28;45345;-74
2021/06/23 04:59:25;;;;;;;;;18.00;17.50;;;;;22.57;49.73;101069.50;5001578;28;45409;-73
2021/06/23 05:01:50;;;;;;;;;16.50;15.75;;;;;22.57;50.07;101077.50;5000956;28;45462;-73
2021/06/23 05:04:15;;;;;;;;;17.75;16.25;;;;;22.56;49.81;101073.97;5000352;28;46139;-75
2021/06/23 05:06:41;;;;;;;;;18.50;15.75;;;;;22.58;50.43;101073.91;4983323;28;45992;-73
2021/06/23 05:09:06;;;;;;;;;19.25;17.00;;;;;22.60;50.04;101076.53;4982559;28;61883;-73
2021/06/23 05:11:33;;;;;;;;;17.25;14.75;;;;;22.56;49.72;101067.78;4998922;28;63942;-73
2021/06/23 05:13:59;;;;;;;;;22.25;19.75;;;;;22.58;49.81;101077.44;4999721;28;45491;-73
2021/06/23 05:16:26;;;;;;;;;17.25;17.00;;;;;22.58;49.81;101082.75;4983038;28;45622;-74
2021/06/23 05:18:52;;;;;;;;;20.50;17.50;;;;;22.56;49.93;101079.28;5016201;28;45287;-72
2021/06/23 05:21:18;;;;;;;;;17.00;15.25;;;;;22.58;50.13;101085.41;4982849;28;45441;-78
2021/06/23 05:23:44;;;;;;;;;21.25;20.00;;;;;22.61;50.37;101083.59;4999879;28;45545;-90
2021/06/23 05:26:09;;;;;;;;;21.50;19.00;;;;;22.64;49.92;101091.44;4999472;28;45322;-75
2021/06/23 05:28:34;;;;;;;;;19.00;18.00;;;;;22.63;50.48;101089.72;5000858;28;67631;-74
2021/06/23 05:31:00;;;;;;;;;23.25;15.25;;;;;22.61;51.18;101086.25;5009907;28;55412;-74
2021/06/23 05:33:25;;;;;;;;;17.50;16.75;;;;;22.67;51.94;101099.31;5036280;28;45409;-72
2021/06/23 05:35:51;;;;;;;;;24.50;22.75;;;;;22.74;52.29;101095.53;5018978;28;51803;-75
2021/06/23 05:38:16;;;;;;;;;25.00;22.25;;;;;22.84;52.23;101104.91;4996631;28;47257;-76
2021/06/23 05:40:41;;;;;;;;;20.00;19.50;;;;;22.93;52.89;101104.59;5016702;28;45660;-77
2021/06/23 05:43:07;;;;;;;;;26.75;20.50;;;;;23.01;52.48;101099.00;5019612;28;45342;-78
2021/06/23 05:45:32;;;;;;;;;31.00;24.75;;;;;22.99;51.84;101096.41;5002017;28;46366;-77
2021/06/23 05:47:58;;;;;;;;;22.50;21.50;;;;;23.06;51.41;101100.59;4983980;28;46986;-76
2021/06/23 05:50:23;;;;;;;;;23.25;21.00;;;;;23.09;51.54;101097.81;4999138;28;45376;-77
2021/06/23 05:52:49;;;;;;;;;23.00;21.25;;;;;23.11;51.47;101095.13;5007664;28;45422;-76
2021/06/23 05:55:20;;;;;;;;;22.75;20.50;;;;;23.17;51.40;101094.84;5015461;28;45434;-74
2021/06/23 05:57:54;;;;;;;;;21.50;19.50;;;;;23.17;51.23;101100.19;4999934;28;45994;-76
2021/06/23 06:00:20;;;;;;;;;26.75;21.25;;;;;23.18;51.05;101101.06;4991877;28;45475;-78
2021/06/23 06:02:47;;;;;;;;;24.25;21.75;;;;;23.12;50.78;101103.03;5018889;28;45444;-76
2021/06/23 06:05:15;;;;;;;;;24.25;21.75;;;;;23.10;50.37;101106.66;5002180;28;45954;-77
2021/06/23 06:07:41;;;;;;;;;22.25;20.00;;;;;23.05;51.15;101109.50;5034745;28;45245;-77
2021/06/23 06:10:10;;;;;;;;;20.25;19.50;;;;;22.98;51.71;101109.78;5018653;28;45266;-77
2021/06/23 06:12:36;;;;;;;;;22.00;19.50;;;;;22.95;51.73;101120.56;4999771;28;45384;-78
2021/06/23 06:15:04;;;;;;;;;21.25;18.00;;;;;22.91;51.10;101109.13;4989446;28;45348;-77
2021/06/23 06:17:30;;;;;;;;;27.50;25.00;;;;;22.92;51.80;101123.31;5000630;28;46005;-77
2021/06/23 06:20:01;;;;;;;;;30.50;27.75;;;;;22.77;51.14;101100.75;4999279;28;46851;-76
2021/06/23 06:22:27;;;;;;;;;40.00;34.75;;;;;22.89;50.53;101126.94;5002867;28;45317;-76
2021/06/23 06:24:53;;;;;;;;;32.25;30.25;;;;;22.87;51.82;101134.13;5003520;28;45249;-76
2021/06/23 06:27:18;;;;;;;;;35.25;31.50;;;;;22.84;51.49;101124.44;5001671;28;45505;-75
2021/06/23 06:29:44;;;;;;;;;29.50;26.50;;;;;22.87;51.56;101123.47;5018552;28;54462;-76
2021/06/23 06:32:10;;;;;;;;;34.50;29.50;;;;;22.88;50.72;101140.31;5002608;28;45389;-75
2021/06/23 06:34:35;;;;;;;;;29.00;26.75;;;;;22.87;51.00;101135.94;5001704;28;45199;-74
2021/06/23 06:37:00;;;;;;;;;22.00;20.50;;;;;22.88;51.77;101135.00;4989864;28;53946;-75
2021/06/23 06:39:26;;;;;;;;;23.50;21.00;;;;;22.86;51.27;101136.84;5021256;28;45945;-74
2021/06/23 06:41:51;;;;;;;;;24.50;21.00;;;;;22.82;50.80;101136.03;5004423;28;45224;-75
2021/06/23 06:44:17;;;;;;;;;19.50;19.50;;;;;22.80;51.14;101138.75;5002183;28;54366;-74
2021/06/23 06:46:44;;;;;;;;;22.50;21.50;;;;;22.77;51.63;101148.66;5018458;28;46351;-74
2021/06/23 06:49:09;;;;;;;;;20.75;19.00;;;;;22.74;51.23;101146.94;4985165;28;45379;-74
2021/06/23 06:51:34;;;;;;;;;26.75;23.25;;;;;22.70;51.86;101136.47;5010193;28;45828;-75
2021/06/23 06:54:01;;;;;;;;;20.00;17.50;;;;;22.70;50.51;101148.00;4999434;28;45619;-73
2021/06/23 06:56:26;;;;;;;;;19.25;18.75;;;;;22.65;51.24;101144.59;4998649;28;46624;-74
2021/06/23 06:58:52;;;;;;;;;20.25;18.00;;;;;22.64;51.92;101149.97;4984694;28;45490;-75
2021/06/23 07:01:18;;;;;;;;;19.50;17.75;;;;;22.65;52.66;101149.94;5015892;28;45352;-75
2021/06/23 07:03:43;;;;;;;;;22.00;19.75;;;;;22.66;50.90;101156.13;5004389;28;45381;-74
2021/06/23 07:06:08;;;;;;;;;25.25;22.25;;;;;22.67;51.13;101152.53;4994569;28;48095;-75
2021/06/23 07:08:34;;;;;;;;;25.75;21.50;;;;;22.66;51.17;101156.13;5013833;28;63153;-74
2021/06/23 07:10:59;;;;;;;;;24.50;24.00;;;;;22.59;50.61;101150.16;5001431;28;45152;-76
2021/06/23 07:13:25;;;;;;;;;26.00;21.50;;;;;22.62;50.98;101166.00;4984802;28;45590;-75
2021/06/23 07:15:50;;;;;;;;;24.25;21.00;;;;;22.58;51.40;101161.69;4996153;28;47395;-72
2021/06/23 07:18:16;;;;;;;;;22.00;20.50;;;;;22.60;51.02;101167.00;5003169;28;59316;-73
2021/06/23 07:20:41;;;;;;;;;23.25;21.75;;;;;22.59;50.71;101158.13;5020979;28;45282;-72
2021/06/23 07:23:07;;;;;;;;;24.00;21.00;;;;;22.59;50.66;101168.78;5020678;28;45250;-72
2021/06/23 07:25:32;;;;;;;;;24.00;19.50;;;;;22.59;50.98;101168.78;5018692;28;50534;-75
2021/06/23 07:27:58;;;;;;;;;21.00;20.00;;;;;22.60;50.61;101167.00;5012827;28;45976;-74
2021/06/23 07:30:24;;;;;;;;;17.75;17.25;;;;;22.63;50.72;101166.88;4984867;28;45483;-74
2021/06/23 07:32:58;;;;;;;;;24.25;19.00;;;;;22.61;50.37;101164.28;4997111;28;45259;-75
2021/06/23 07:38:12;;;;;;;;;20.50;18.00;;;;;22.58;50.43;101170.53;4998417;28;45971;-74
2021/06/23 07:40:50;;;;;;;;;24.00;19.00;;;;;22.61;50.43;101166.06;4998480;28;45454;-75
2021/06/23 07:43:16;;;;;;;;;20.50;18.25;;;;;22.62;50.12;101176.66;5006279;28;45381;-73
2021/06/23 07:46:04;;;;;;;;;19.75;19.25;;;;;22.61;50.78;101174.91;5003184;28;48617;-73
2021/06/23 07:48:32;;;;;;;;;21.25;18.00;;;;;22.57;50.50;101174.13;5005858;28;45151;-73
2021/06/23 07:51:16;;;;;;;;;17.50;16.75;;;;;22.58;50.16;101175.84;5004649;28;45441;-73
2021/06/23 07:56:09;;;;;;;;;18.25;16.75;;;;;22.52;50.67;101162.78;5036947;28;45488;-76
2021/06/23 08:09:35;;;;;;;;;23.00;20.00;;;;;22.52;50.27;101191.19;5028115;28;45459;-72
2021/06/23 08:14:39;;;;;;;;;19.50;16.25;;;;;22.48;50.08;101186.88;5015725;28;45654;-73
2021/06/23 08:17:04;;;;;;;;;22.00;19.75;;;;;22.47;50.46;101187.78;5020767;28;46007;-72
2021/06/23 08:19:30;;;;;;;;;17.00;16.00;;;;;22.47;50.40;101195.78;5003798;28;46283;-72
2021/06/23 08:21:55;;;;;;;;;20.75;19.50;;;;;22.47;50.21;101182.47;5020328;28;57922;-72
2021/06/23 08:24:21;;;;;;;;;19.50;17.75;;;;;22.47;50.16;101186.00;5001837;28;56305;-73
2021/06/23 08:26:49;;;;;;;;;23.50;20.50;;;;;22.44;50.24;101179.94;4983199;28;46743;-73
2021/06/23 08:29:14;;;;;;;;;21.25;19.75;;;;;22.45;51.06;101179.00;4999754;28;45685;-73
2021/06/23 08:31:40;;;;;;;;;18.50;18.50;;;;;22.43;50.12;101181.72;4999143;28;59679;-73
2021/06/23 08:34:05;;;;;;;;;20.50;17.25;;;;;22.38;50.92;101180.13;5015659;28;66035;-73
2021/06/23 08:36:30;;;;;;;;;20.25;18.25;;;;;22.39;50.69;101179.19;4998563;28;66889;-74
2021/06/23 08:38:56;;;;;;;;;18.75;17.25;;;;;22.38;50.65;101169.47;4982283;28;65647;-72
2021/06/23 08:41:26;;;;;;;;;14.25;14.25;;;;;22.40;50.72;101176.47;5000069;28;45348;-72
2021/06/23 08:43:52;;;;;;;;;20.25;19.25;;;;;22.45;50.32;101177.22;4996047;28;45504;-73
2021/06/23 08:46:18;;;;;;;;;25.75;20.50;;;;;22.48;50.23;101176.22;5002663;28;47812;-73
2021/06/23 08:48:43;;;;;;;;;18.00;16.75;;;;;22.48;50.34;101171.78;4985666;28;46106;-72
2021/06/23 08:51:09;;;;;;;;;19.00;18.50;;;;;22.46;50.58;101173.63;5004516;28;57058;-72
2021/06/23 08:53:34;;;;;;;;;19.75;16.75;;;;;22.46;50.24;101178.06;5018899;28;45712;-72
2021/06/23 08:56:00;;;;;;;;;19.50;16.00;;;;;22.43;50.11;101181.72;5019320;28;45586;-72
2021/06/23 08:58:25;;;;;;;;;18.25;18.25;;;;;22.40;50.45;101184.44;5018946;28;45274;-73
2021/06/23 09:00:53;;;;;;;;;19.75;18.75;;;;;22.41;49.90;101188.84;5010390;28;45338;-72
2021/06/23 09:03:18;;;;;;;;;21.00;20.25;;;;;22.43;50.57;101188.81;4999166;28;45530;-72
2021/06/23 09:05:53;;;;;;;;;19.00;18.50;;;;;22.45;50.37;101182.53;5015568;28;62494;-72
2021/06/23 09:08:37;;;;;;;;;20.50;19.25;;;;;22.48;50.52;101186.88;5016087;28;45321;-72
2021/06/23 09:11:24;;;;;;;;;21.00;17.50;;;;;22.46;50.02;101194.91;5001000;28;45241;-72
2021/06/23 09:13:49;;;;;;;;;21.50;19.50;;;;;22.44;50.32;101180.78;5018757;28;45652;-72
2021/06/23 09:16:15;;;;;;;;;21.50;18.50;;;;;22.45;50.11;101185.19;5002981;28;58871;-72
2021/06/23 09:18:41;;;;;;;;;20.00;17.25;;;;;22.49;50.09;101186.81;5035331;28;59301;-73
2021/06/23 09:21:17;;;;;;;;;19.25;18.25;;;;;22.50;50.27;101198.31;5002402;28;45436;-72
2021/06/23 09:23:54;;;;;;;;;20.50;18.25;;;;;22.49;50.04;101192.13;5019563;28;46478;-73
2021/06/23 09:26:23;;;;;;;;;21.50;17.75;;;;;22.48;49.49;101193.06;5018755;28;47777;-72
2021/06/23 09:29:06;;;;;;;;;18.75;18.00;;;;;22.45;49.71;101193.16;5035309;28;45534;-73
2021/06/23 09:32:10;;;;;;;;;24.25;20.25;;;;;22.45;50.32;101192.28;5019304;28;45311;-73
2021/06/23 09:34:43;;;;;;;;;19.00;16.50;;;;;22.43;50.16;101187.03;4978060;28;45465;-73
2021/06/23 09:37:31;;;;;;;;;16.75;15.75;;;;;22.45;50.53;101192.28;4929712;28;48382;-73
2021/06/23 09:40:21;;;;;;;;;20.25;19.00;;;;;22.46;50.33;101196.69;4981183;28;45323;-72
2021/06/23 09:42:50;;;;;;;;;19.75;17.75;;;;;22.44;50.20;101187.91;5018351;28;45392;-71
2021/06/23 09:45:18;;;;;;;;;23.00;17.50;;;;;22.47;50.30;101195.78;5006240;28;45795;-71
2021/06/23 09:47:45;;;;;;;;;21.75;20.00;;;;;22.47;50.66;101193.97;4995398;28;47163;-72
2021/06/23 09:50:11;;;;;;;;;16.50;16.50;;;;;22.46;50.39;101184.25;5002958;28;45342;-73
2021/06/23 09:52:38;;;;;;;;;17.75;17.75;;;;;22.49;50.27;101192.13;4990206;28;45407;-72
2021/06/23 09:55:04;;;;;;;;;21.75;18.25;;;;;22.52;50.67;101183.19;4997448;28;45286;-72
2021/06/23 09:57:30;;;;;;;;;18.50;18.50;;;;;22.53;50.07;101182.28;4981904;28;47417;-72
2021/06/23 10:00:09;;;;;;;;;16.75;16.00;;;;;22.52;50.08;101180.53;4985946;28;45278;-74
2021/06/23 10:02:35;;;;;;;;;21.00;20.25;;;;;22.56;50.47;101192.81;4992109;28;45536;-72
2021/06/23 10:05:24;;;;;;;;;18.00;16.50;;;;;22.57;50.32;101189.22;5017450;28;45919;-72
2021/06/23 10:07:49;;;;;;;;;19.75;17.25;;;;;22.59;50.51;101192.72;5019631;28;45467;-73
2021/06/23 10:10:20;;;;;;;;;21.75;16.25;;;;;22.63;50.44;101193.47;5018345;28;45357;-72
2021/06/23 10:12:52;;;;;;;;;17.00;16.00;;;;;22.66;50.23;101185.38;5018373;28;45364;-75
2021/06/23 10:15:18;;;;;;;;;25.00;20.75;;;;;22.67;50.16;101190.66;5020014;28;45319;-75
2021/06/23 10:17:44;;;;;;;;;25.50;22.50;;;;;22.71;49.87;101202.94;5014878;28;45725;-73
2021/06/23 10:20:10;;;;;;;;;23.00;22.00;;;;;22.68;50.95;101203.06;5008290;28;45651;-73
2021/06/23 10:22:35;;;;;;;;;20.75;17.00;;;;;22.68;50.91;101199.53;4995740;28;45530;-73
2021/06/23 10:25:06;;;;;;;;;24.00;18.75;;;;;22.68;49.93;101200.41;4997318;28;45640;-73
2021/06/23 10:27:31;;;;;;;;;22.00;20.50;;;;;22.70;50.17;101195.03;4981096;28;46523;-73
2021/06/23 10:29:59;;;;;;;;;20.75;18.50;;;;;22.66;50.60;101196.91;5006991;28;61604;-73
2021/06/23 10:32:25;;;;;;;;;21.00;21.00;;;;;22.67;49.93;101203.09;5001825;28;45376;-73
2021/06/23 10:34:50;;;;;;;;;24.50;21.25;;;;;22.65;49.68;101202.28;5001733;28;45340;-73
2021/06/23 10:37:17;;;;;;;;;21.75;18.75;;;;;22.61;49.77;101198.84;5017542;28;45832;-73
2021/06/23 10:39:45;;;;;;;;;25.25;22.25;;;;;22.63;50.04;101202.31;5018647;28;45405;-73
2021/06/23 10:42:10;;;;;;;;;25.75;22.75;;;;;22.61;49.82;101208.63;5017967;28;45401;-73
2021/06/23 10:44:40;;;;;;;;;19.50;18.50;;;;;22.58;49.91;101206.91;5001166;28;45221;-73
2021/06/23 10:47:08;;;;;;;;;27.00;24.25;;;;;22.56;50.02;101201.66;5019039;28;45450;-73
2021/06/23 10:49:42;;;;;;;;;20.00;18.50;;;;;22.59;49.60;101208.69;5006226;28;45331;-73
2021/06/23 10:52:20;;;;;;;;;26.00;24.00;;;;;22.58;49.84;101207.78;5006455;28;45430;-73
2021/06/23 10:54:49;;;;;;;;;20.75;19.75;;;;;22.55;50.45;101210.56;5005426;28;45295;-74
2021/06/23 10:57:28;;;;;;;;;21.25;19.25;;;;;22.57;50.11;101215.81;5021530;28;45376;-74
2021/06/23 10:59:54;;;;;;;;;24.00;22.00;;;;;22.57;50.18;101211.38;5015541;28;45178;-74
2021/06/23 11:02:28;;;;;;;;;21.00;19.50;;;;;22.55;50.53;101213.22;4999646;28;45227;-73
2021/06/23 11:05:05;;;;;;;;;21.50;18.25;;;;;22.57;49.75;101221.16;5011308;28;45559;-73
2021/06/23 11:07:36;;;;;;;;;28.00;23.00;;;;;22.56;50.05;101220.28;5011157;28;47603;-73
2021/06/23 11:10:14;;;;;;;;;23.00;19.00;;;;;22.57;49.93;101221.16;5016466;28;45415;-73
2021/06/23 11:12:43;;;;;;;;;19.25;19.25;;;;;22.57;50.14;101224.66;5001130;28;45471;-73
2021/06/23 11:15:18;;;;;;;;;22.00;21.00;;;;;22.59;49.60;101229.97;5002653;28;45499;-73
2021/06/23 11:17:44;;;;;;;;;23.00;18.50;;;;;22.53;50.09;101225.72;5000676;28;48038;-74
2021/06/23 11:20:19;;;;;;;;;23.50;21.50;;;;;22.58;50.31;101234.38;4991298;28;45456;-74
2021/06/23 11:22:54;;;;;;;;;24.00;20.25;;;;;22.59;49.77;101237.94;5013860;28;45478;-74
2021/06/23 11:25:28;;;;;;;;;20.50;20.25;;;;;22.60;49.81;101236.16;5036690;28;45474;-73
2021/06/23 11:28:09;;;;;;;;;23.00;21.50;;;;;22.61;49.84;101241.44;5020114;28;45447;-72
2021/06/23 11:30:49;;;;;;;;;24.25;19.00;;;;;22.61;49.93;101240.56;5020999;28;46547;-71
2021/06/23 11:33:27;;;;;;;;;20.25;17.75;;;;;22.61;49.53;101240.56;5021654;28;45508;-73